Flight Track Log - Related Links

Times and Time Zones

All times are in EDT time to prevent confusion due to time zone crossing. See the EJA831 flight status page for this flight to view local times or setup timezone preferences in your user account.

Time Position Orientation Groundspeed Altitude Reporting Facility
EDT Latitude Longitude Course Direction KTS MPH feet Rate Location/Type
Thu 10:34:30 AM 40.8167 -73.0833 57° Northeast 192 221 2,000  Level New York TRACON
Thu 10:35:30 AM 40.8500 -73.0167 57° Northeast 254 292 3,800 2,476 Climbing New York TRACON
Thu 10:36:36 AM 40.8000 -72.9167 123° Southeast 296 341 7,200 1,585 Climbing New York TRACON
Thu 10:38:09 AM 40.7703 -72.7828 106° East 282 325 8,000 353 Climbing Boston Center
Thu 10:39:09 AM 40.7558 -72.6811 101° East 271 312 8,100 1,350 Climbing Boston Center
Thu 10:40:09 AM 40.7186 -72.5961 120° Southeast 261 300 10,700 2,750 Climbing Boston Center
Thu 10:41:09 AM 40.6497 -72.6397 206° Southwest 196 226 13,600 2,650 Climbing Boston Center
Thu 10:42:09 AM 40.6308 -72.7272 254° West 192 221 16,000 2,700 Climbing Boston Center
Thu 10:43:09 AM 40.5992 -72.8556 252° West 251 289 19,000 2,510 Climbing Boston Center
Thu 10:44:42 AM 40.5631 -73.0303 255° West 304 350 22,400 2,039 Climbing New York Center
Thu 10:45:42 AM 40.5381 -73.1361 253° West 321 369 24,200 1,714 Climbing New York Center
Thu 10:46:41 AM 40.5064 -73.2631 252° West 331 381 25,800 908 Climbing New York Center
Thu 10:47:41 AM 40.4767 -73.3850 252° West 343 395 26,000 98 Climbing New York Center
Thu 10:48:43 AM 40.4464 -73.5147 253° West 371 427 26,000 298 Level New York Center
Thu 10:49:42 AM 40.4119 -73.6494 251° West 383 441 26,600 1,150 Climbing New York Center
Thu 10:50:43 AM 40.3797 -73.7736 251° West 372 428 28,300 1,537 Climbing New York Center
Thu 10:51:43 AM 40.3536 -73.8950 254° West 365 420 29,700 850 Climbing New York Center
Thu 10:52:43 AM 40.3233 -74.0161 252° West 360 414 30,000 793 Climbing New York Center
Thu 10:53:44 AM 40.2925 -74.1425 252° West 360 414 31,300 1,008 Climbing New York Center
Thu 10:54:42 AM 40.2597 -74.2686 251° West 360 414 32,000 353 Climbing New York Center
Thu 10:55:43 AM 40.2267 -74.3975 251° West 365 420 32,000 165 Level New York Center
Thu 10:57:00 AM 40.2167 -74.5491 270° West  Level FlightAware Approximate
Thu 10:57:44 AM 40.1944 -74.6867 270° West 411 473 32,500  Level New York Center
Thu 10:58:42 AM 40.1944 -74.8117 270° West 406 467 33,400 958 Climbing New York Center
Thu 10:59:43 AM 40.1975 -74.9639 272° West 396 456 34,400 992 Climbing New York Center
Thu 11:00:43 AM 40.1989 -75.0997 271° West 383 441 35,400 793 Climbing New York Center
Thu 11:01:44 AM 40.1978 -75.2383 269° West 383 441 36,000 298 Climbing New York Center
Thu 11:02:44 AM 40.1967 -75.3769 269° West 383 441 36,000  Level New York Center
Thu 11:03:42 AM 40.1953 -75.5181 269° West 383 441 36,000  Level New York Center
Thu 11:04:43 AM 40.1933 -75.6647 269° West 388 447 36,000  Level New York Center
Thu 11:05:43 AM 40.1914 -75.8086 269° West 393 452 36,000  Level New York Center
Thu 11:06:44 AM 40.1886 -75.9225 268° West 398 458 36,000  Level New York Center
Thu 11:07:42 AM 40.1839 -76.0772 268° West 403 464 36,000  Level New York Center
Thu 11:08:42 AM 40.1792 -76.2236 268° West 403 464 36,000  Level New York Center
Thu 11:09:43 AM 40.1767 -76.3675 269° West 403 464 36,000  Level New York Center
Thu 11:11:00 AM 40.1746 -76.5336 269° West  Level FlightAware Approximate
Thu 11:11:44 AM 40.1708 -76.6575 269° West 403 464 36,000  Level New York Center
Thu 11:12:44 AM 40.1678 -76.8014 268° West 403 464 36,000  Level New York Center
Thu 11:13:44 AM 40.1644 -76.9478 268° West 403 464 36,000  Level New York Center
Thu 11:14:43 AM 40.1628 -77.0972 269° West 403 464 36,000  Level New York Center
Thu 11:16:32 AM 40.1594 -77.3664 269° West 384 442 36,000  Level Cleveland Center
Thu 11:17:32 AM 40.1550 -77.5106 268° West 395 455 36,000  Level Cleveland Center
Thu 11:18:32 AM 40.1525 -77.6575 269° West 405 466 36,000  Level Cleveland Center
Thu 11:19:32 AM 40.1478 -77.8017 268° West 405 466 36,000  Level Cleveland Center
Thu 11:20:32 AM 40.1389 -77.9514 266° West 405 466 36,000  Level Cleveland Center
Thu 11:21:32 AM 40.1339 -78.0956 267° West 405 466 36,000  Level Cleveland Center
Thu 11:22:32 AM 40.1306 -78.2425 268° West 405 466 36,000  Level Cleveland Center
Thu 11:23:32 AM 40.1253 -78.3892 267° West 405 466 36,000  Level Cleveland Center
Thu 11:24:32 AM 40.1197 -78.5361 267° West 405 466 36,000  Level Cleveland Center
Thu 11:25:32 AM 40.1222 -78.6825 271° West 405 466 36,000  Level Cleveland Center
Thu 11:26:32 AM 40.1267 -78.8317 272° West 405 466 36,000  Level Cleveland Center
Thu 11:27:32 AM 40.1267 -78.9811 270° West 410 472 36,000  Level Cleveland Center
Thu 11:28:32 AM 40.1308 -79.1303 272° West 410 472 36,000  Level Cleveland Center
Thu 11:29:32 AM 40.1347 -79.2822 272° West 417 480 36,000  Level Cleveland Center
Thu 11:30:32 AM 40.1408 -79.4478 273° West 417 480 36,000  Level Cleveland Center
Thu 11:31:32 AM 40.1442 -79.5972 272° West 417 480 36,000  Level Cleveland Center
Thu 11:32:32 AM 40.1453 -79.7467 271° West 417 480 36,000  Level Cleveland Center
Thu 11:33:32 AM 40.1486 -79.8958 272° West 417 480 36,000  Level Cleveland Center
Thu 11:34:32 AM 40.1472 -80.0453 269° West 417 480 36,000  Level Cleveland Center
Thu 11:35:32 AM 40.1500 -80.1975 271° West 425 489 36,000  Level Cleveland Center
Thu 11:36:32 AM 40.1525 -80.3467 271° West 415 478 36,000  Level Cleveland Center
Thu 11:37:32 AM 40.1547 -80.4989 271° West 415 478 36,000  Level Cleveland Center
Thu 11:38:32 AM 40.1567 -80.6483 271° West 420 483 36,000  Level Cleveland Center
Thu 11:39:32 AM 40.1567 -80.8031 270° West 420 483 36,000 -50 Level Cleveland Center
Thu 11:40:32 AM 40.1583 -80.9525 271° West 420 483 35,900 -1,208 Descending Cleveland Center
Thu 11:42:06 AM 40.1556 -81.1592 269° West 409 471 32,900 -2,154 Descending Indianapolis Center
Thu 11:43:08 AM 40.1564 -81.3358 270° West 409 471 30,300 -2,274 Descending Indianapolis Center
Thu 11:44:10 AM 40.1561 -81.4917 270° West 419 482 28,200 -1,113 Descending Indianapolis Center
Thu 11:45:12 AM 40.1564 -81.6489 270° West 425 489 28,000 -97 Descending Indianapolis Center
Thu 11:46:14 AM 40.1558 -81.8058 270° West 431 496 28,000 -435 Level Indianapolis Center
Thu 11:47:16 AM 40.1556 -81.9636 270° West 432 497 27,100 -968 Descending Indianapolis Center
Thu 11:48:18 AM 40.1553 -82.1103 270° West 406 467 26,000 -1,016 Descending Indianapolis Center
Thu 11:49:20 AM 40.1536 -82.2525 269° West 390 449 25,000 -1,161 Descending Indianapolis Center
Thu 11:50:22 AM 40.1525 -82.4133 270° West 378 435 23,600 -1,355 Descending Indianapolis Center
Thu 11:51:24 AM 40.1511 -82.5514 269° West 377 434 22,200 -1,392 Descending Indianapolis Center
Thu 11:52:27 AM 40.1561 -82.6867 273° West 369 425 20,700 -1,488 Descending Indianapolis Center
Thu 11:53:29 AM 40.1639 -82.8194 274° West 365 420 19,100 -1,452 Descending Indianapolis Center
Thu 11:54:31 AM 40.1700 -82.9489 274° West 356 410 17,700 -1,403 Descending Indianapolis Center
Thu 11:55:33 AM 40.1761 -83.0772 274° West 353 406 16,200 -1,548 Descending Indianapolis Center
Thu 11:56:35 AM 40.1839 -83.2236 274° West 345 397 14,500 -1,597 Descending Indianapolis Center
Thu 11:57:37 AM 40.1889 -83.3464 273° West 340 391 12,900 -1,500 Descending Indianapolis Center
Thu 11:58:39 AM 40.1950 -83.4681 274° West 336 387 11,400 -919 Descending Indianapolis Center
Thu 11:59:41 AM 40.2003 -83.5872 273° West 330 380 11,000 -484 Descending Indianapolis Center
Thu 12:00:43 PM 40.1964 -83.7003 267° West 320 368 10,400 -774 Descending Indianapolis Center
Thu 12:01:45 PM 40.1692 -83.8042 251° West 304 350 9,400 -1,065 Descending Indianapolis Center
Thu 12:02:47 PM 40.1414 -83.9147 252° West 277 319 8,200 -1,065 Descending Indianapolis Center
Thu 12:03:49 PM 40.1156 -84.0053 250° West 270 311 7,200 -968 Descending Indianapolis Center
Thu 12:04:51 PM 40.0719 -84.0817 233° Southwest 263 303 6,200 -581 Descending Indianapolis Center
Thu 12:05:53 PM 40.0308 -84.1603 236° Southwest 262 302 6,000 -97 Descending Indianapolis Center
Thu 12:06:55 PM 39.9886 -84.2408 236° Southwest 264 304 6,000 -242 Level Indianapolis Center
Thu 12:07:57 PM 39.9439 -84.3142 232° Southwest 261 300 5,500 -1,452 Descending Indianapolis Center
Thu 12:08:59 PM 39.8800 -84.2950 167° South 222 255 3,000 -1,790 Descending Indianapolis Center
Thu 12:10:01 PM 39.8733 -84.2569 103° East 169 194 1,800 -1,161 Descending Indianapolis Center

Login

Don't have an account? Register now (free) for customized features, flight alerts, and more!